Time;durP1;ratioP1;P1;durP2;ratioP2;P2;SDS_P1;SDS_P2;PMS_P1;PMS_P2;Temp;Humidity;BMP_temperature;BMP_pressure;BME280_temperature;BME280_humidity;BME280_pressure;Samples;Min_cycle;Max_cycle;Signal;HPM_P1;HPM_P2
2023/09/10 00:01:02;;;;;;;20.77;16.85;;;23.70;99.90;;;;;;4973570;28;20046;-87
2023/09/10 00:03:28;;;;;;;20.42;17.17;;;23.70;99.90;;;;;;4980533;28;20074;-87
2023/09/10 00:05:54;;;;;;;20.25;18.38;;;23.60;99.90;;;;;;4990784;28;20062;-87
2023/09/10 00:08:19;;;;;;;20.13;18.20;;;23.60;99.90;;;;;;4977146;28;20471;-88
2023/09/10 00:10:45;;;;;;;22.17;18.60;;;23.70;99.90;;;;;;4973456;28;20035;-87
2023/09/10 00:13:11;;;;;;;20.88;17.63;;;24.00;99.90;;;;;;4972822;28;20031;-86
2023/09/10 00:15:37;;;;;;;18.77;16.83;;;24.00;99.90;;;;;;4973164;28;20026;-87
2023/09/10 00:18:02;;;;;;;20.80;18.90;;;23.50;99.90;;;;;;4972664;28;20490;-87
2023/09/10 00:20:28;;;;;;;25.40;17.92;;;23.60;99.90;;;;;;4973258;28;20027;-87
2023/09/10 00:22:56;;;;;;;21.05;18.52;;;23.60;99.90;;;;;;4973459;28;20031;-87
2023/09/10 00:25:22;;;;;;;19.55;17.75;;;23.60;99.90;;;;;;4972620;28;20537;-87
2023/09/10 00:27:47;;;;;;;22.50;17.92;;;23.80;99.90;;;;;;4972949;28;20030;-88
2023/09/10 00:30:13;;;;;;;19.13;17.38;;;23.50;99.90;;;;;;4973581;28;20034;-87
2023/09/10 00:32:38;;;;;;;23.08;17.98;;;23.50;99.90;;;;;;4972154;28;20034;-86
2023/09/10 00:35:04;;;;;;;19.90;17.75;;;23.40;99.90;;;;;;4973207;28;20023;-86
2023/09/10 00:37:30;;;;;;;20.70;18.58;;;23.40;99.90;;;;;;4973194;28;20144;-87
2023/09/10 00:39:56;;;;;;;21.98;19.15;;;23.40;99.90;;;;;;4973931;28;20113;-87
2023/09/10 00:42:22;;;;;;;21.60;18.52;;;23.30;99.90;;;;;;4974318;28;20031;-87
2023/09/10 00:44:48;;;;;;;21.80;19.90;;;23.40;99.90;;;;;;4973078;28;20031;-87
2023/09/10 00:47:14;;;;;;;20.30;18.27;;;23.40;99.90;;;;;;4972543;28;20077;-86
2023/09/10 00:49:40;;;;;;;25.13;19.95;;;23.40;99.90;;;;;;4972927;28;20031;-87
2023/09/10 00:52:06;;;;;;;24.63;19.98;;;23.40;99.90;;;;;;4973168;28;20046;-88
2023/09/10 00:54:33;;;;;;;22.92;20.80;;;23.40;99.90;;;;;;4972401;28;20050;-87
2023/09/10 00:57:03;;;;;;;21.98;19.98;;;23.30;99.90;;;;;;4973444;28;20027;-87
2023/09/10 00:59:30;;;;;;;24.33;19.88;;;23.30;99.90;;;;;;4974375;28;20449;-87
2023/09/10 01:01:59;;;;;;;23.08;20.73;;;23.30;99.90;;;;;;4972211;28;20514;-87
2023/09/10 01:04:25;;;;;;;23.98;21.42;;;23.20;99.90;;;;;;4974465;28;20019;-87
2023/09/10 01:06:52;;;;;;;23.27;21.02;;;23.30;99.90;;;;;;4982629;28;20026;-87
2023/09/10 01:09:18;;;;;;;25.02;22.42;;;23.10;99.90;;;;;;4991140;28;20117;-87
2023/09/10 01:12:02;;;;;;;25.33;22.67;;;23.10;99.90;;;;;;4976488;28;20126;-88
2023/09/10 01:14:35;;;;;;;25.30;22.80;;;23.00;99.90;;;;;;4976027;28;20051;-86
2023/09/10 01:17:10;;;;;;;25.33;22.65;;;23.00;99.90;;;;;;4976917;28;20031;-88
2023/09/10 01:19:50;;;;;;;25.88;23.25;;;23.00;99.90;;;;;;4976662;28;20026;-87
2023/09/10 01:22:43;;;;;;;24.27;21.77;;;23.00;99.90;;;;;;4975886;28;20486;-87
2023/09/10 01:25:09;;;;;;;24.80;22.15;;;23.00;99.90;;;;;;4976607;28;20102;-86
2023/09/10 01:27:34;;;;;;;25.13;22.60;;;23.00;99.90;;;;;;4975943;28;20080;-87
2023/09/10 01:30:00;;;;;;;26.00;22.40;;;23.00;99.90;;;;;;4975637;28;20026;-88
2023/09/10 01:32:29;;;;;;;25.92;23.38;;;23.00;99.90;;;;;;4976284;28;20037;-88
2023/09/10 01:35:21;;;;;;;23.38;21.17;;;23.00;99.90;;;;;;4980225;28;20110;-87
2023/09/10 01:38:12;;;;;;;24.30;21.85;;;23.00;99.90;;;;;;4972698;28;20494;-87
2023/09/10 01:40:46;;;;;;;24.23;21.83;;;23.00;99.90;;;;;;4975875;28;20031;-87
2023/09/10 01:43:12;;;;;;;25.48;22.08;;;23.00;99.90;;;;;;4975224;28;20368;-87
2023/09/10 01:45:39;;;;;;;24.98;22.13;;;22.90;99.90;;;;;;4975354;28;20478;-87
2023/09/10 01:48:05;;;;;;;28.17;23.33;;;23.10;99.90;;;;;;4976250;28;20027;-87
2023/09/10 01:50:31;;;;;;;27.38;22.63;;;23.00;99.90;;;;;;4975056;28;20046;-87
2023/09/10 01:52:58;;;;;;;25.42;22.88;;;23.00;99.90;;;;;;4975951;28;20027;-86
2023/09/10 01:55:24;;;;;;;27.70;24.05;;;22.90;99.90;;;;;;4975903;28;20035;-87
2023/09/10 01:57:50;;;;;;;26.02;23.35;;;23.00;99.90;;;;;;4974849;28;20023;-86
2023/09/10 02:00:15;;;;;;;25.60;22.98;;;22.80;99.90;;;;;;4975615;28;20531;-87
2023/09/10 02:02:41;;;;;;;27.23;24.30;;;22.80;99.90;;;;;;4975306;28;20062;-86
2023/09/10 02:05:07;;;;;;;26.50;23.98;;;22.80;99.90;;;;;;4975263;28;20111;-87
2023/09/10 02:07:33;;;;;;;25.83;23.10;;;22.80;99.90;;;;;;4975410;28;20486;-86
2023/09/10 02:09:59;;;;;;;26.10;23.02;;;22.80;99.90;;;;;;4975475;28;20393;-87
2023/09/10 02:12:25;;;;;;;25.52;23.13;;;22.80;99.90;;;;;;4997444;28;20046;-86
2023/09/10 02:14:50;;;;;;;26.17;23.17;;;22.80;99.90;;;;;;4979594;28;20035;-86
2023/09/10 02:17:16;;;;;;;29.23;24.35;;;22.80;99.90;;;;;;4976652;28;20030;-87
2023/09/10 02:19:42;;;;;;;26.75;23.60;;;22.70;99.90;;;;;;4974695;28;20424;-87
2023/09/10 02:22:07;;;;;;;25.08;22.65;;;22.70;99.90;;;;;;4975058;28;20027;-87
2023/09/10 02:24:33;;;;;;;28.25;24.10;;;22.70;99.90;;;;;;4973905;28;20368;-88
2023/09/10 02:26:59;;;;;;;26.67;23.98;;;22.70;99.90;;;;;;4975180;28;20027;-87
2023/09/10 02:29:24;;;;;;;29.67;24.20;;;22.70;99.90;;;;;;4976489;28;20046;-87
2023/09/10 02:31:50;;;;;;;27.23;24.33;;;22.70;99.90;;;;;;4979119;28;20454;-87
2023/09/10 02:34:15;;;;;;;28.80;25.70;;;22.70;99.90;;;;;;4974974;28;20023;-87
2023/09/10 02:36:41;;;;;;;29.20;25.63;;;22.70;99.90;;;;;;4974807;28;20122;-87
2023/09/10 02:39:06;;;;;;;30.55;26.17;;;22.60;99.90;;;;;;4974531;28;20077;-87
2023/09/10 02:41:32;;;;;;;27.42;24.17;;;22.60;99.90;;;;;;4974690;28;20384;-87
2023/09/10 02:43:58;;;;;;;28.38;25.17;;;22.60;99.90;;;;;;4974842;28;20082;-87
2023/09/10 02:46:25;;;;;;;30.27;26.55;;;22.50;99.90;;;;;;4974273;28;20493;-87
2023/09/10 02:48:50;;;;;;;29.02;25.95;;;22.60;99.90;;;;;;4974391;28;20597;-87
2023/09/10 02:51:16;;;;;;;29.48;26.33;;;22.50;99.90;;;;;;4974954;28;20035;-87
2023/09/10 02:53:42;;;;;;;30.83;27.63;;;22.60;99.90;;;;;;4973614;28;20394;-87
2023/09/10 02:56:07;;;;;;;31.27;27.92;;;22.60;99.90;;;;;;4974657;28;20023;-87
2023/09/10 02:58:33;;;;;;;30.25;27.15;;;22.50;99.90;;;;;;4974404;28;20030;-87
2023/09/10 03:01:03;;;;;;;30.83;27.83;;;22.50;99.90;;;;;;4973477;28;20109;-87
2023/09/10 03:03:29;;;;;;;;;;;22.50;99.90;;;;;;4974933;28;20062;-87
2023/09/10 03:05:54;;;;;;;30.33;27.33;;;22.50;99.90;;;;;;4974355;28;19957;-87
2023/09/10 03:08:21;;;;;;;32.08;28.70;;;22.50;99.90;;;;;;4973643;28;20055;-86
2023/09/10 03:10:47;;;;;;;32.83;29.40;;;22.50;99.90;;;;;;4973913;28;20023;-86
2023/09/10 03:13:12;;;;;;;32.63;29.17;;;22.40;99.90;;;;;;4974097;28;20037;-87
2023/09/10 03:15:38;;;;;;;36.88;30.15;;;22.40;99.90;;;;;;4995204;28;20058;-87
2023/09/10 03:18:03;;;;;;;33.17;29.70;;;22.40;99.90;;;;;;4982914;28;20079;-86
2023/09/10 03:20:29;;;;;;;32.63;29.13;;;22.40;99.90;;;;;;4975614;28;20142;-86
2023/09/10 03:22:58;;;;;;;36.78;29.70;;;22.20;99.90;;;;;;4973687;28;20030;-87
2023/09/10 03:25:24;;;;;;;33.05;29.52;;;22.30;99.90;;;;;;4978269;28;20050;-86
2023/09/10 03:27:50;;;;;;;38.30;32.20;;;22.30;99.90;;;;;;4973740;28;20097;-88
2023/09/10 03:30:16;;;;;;;39.47;31.77;;;22.20;99.90;;;;;;4974180;28;20051;-87
2023/09/10 03:32:42;;;;;;;38.10;32.60;;;22.30;99.90;;;;;;4973298;28;20039;-87
2023/09/10 03:35:08;;;;;;;35.08;31.40;;;22.30;99.90;;;;;;4972526;28;20439;-87
2023/09/10 03:37:34;;;;;;;36.83;31.10;;;22.20;99.90;;;;;;4973648;28;20483;-86
2023/09/10 03:39:59;;;;;;;36.42;32.53;;;22.20;99.90;;;;;;4973980;28;20031;-87
2023/09/10 03:42:25;;;;;;;39.28;33.17;;;22.20;99.90;;;;;;4973283;28;20027;-88
2023/09/10 03:44:50;;;;;;;35.97;32.33;;;22.20;99.90;;;;;;4973490;28;20033;-87
2023/09/10 03:47:16;;;;;;;37.45;31.77;;;22.20;99.90;;;;;;4974054;28;20027;-86
2023/09/10 03:49:42;;;;;;;42.58;34.05;;;22.20;99.90;;;;;;4972751;28;20031;-87
2023/09/10 03:52:19;;;;;;;36.75;33.10;;;22.10;99.90;;;;;;4973448;28;20058;-88
2023/09/10 03:54:45;;;;;;;36.83;32.83;;;22.10;99.90;;;;;;4973215;28;20023;-87
2023/09/10 03:57:10;;;;;;;38.35;34.28;;;22.10;99.90;;;;;;4973106;28;20079;-87
2023/09/10 03:59:36;;;;;;;37.55;33.55;;;22.10;99.90;;;;;;4973030;28;20497;-87
2023/09/10 04:02:02;;;;;;;43.25;36.00;;;22.10;99.90;;;;;;4973039;28;20062;-87
2023/09/10 04:04:28;;;;;;;39.78;34.88;;;22.10;99.90;;;;;;4972922;28;20110;-87
2023/09/10 04:06:54;;;;;;;48.25;35.42;;;22.00;99.90;;;;;;4973138;28;20390;-86
2023/09/10 04:09:20;;;;;;;38.35;34.35;;;22.00;99.90;;;;;;4973469;28;20030;-87
2023/09/10 04:11:45;;;;;;;40.33;36.05;;;22.00;99.90;;;;;;4972197;28;20031;-87
2023/09/10 04:14:11;;;;;;;38.67;34.47;;;22.00;99.90;;;;;;4973704;28;20074;-86
2023/09/10 04:16:36;;;;;;;40.15;34.70;;;21.90;99.90;;;;;;4976190;28;20027;-86
2023/09/10 04:19:02;;;;;;;41.47;37.03;;;21.90;99.90;;;;;;4987987;28;20071;-87
2023/09/10 04:21:28;;;;;;;39.53;35.28;;;21.80;99.90;;;;;;4986300;28;20051;-87
2023/09/10 04:23:53;;;;;;;39.00;34.90;;;21.80;99.90;;;;;;4976281;28;20109;-88
2023/09/10 04:26:19;;;;;;;39.00;34.88;;;21.80;99.90;;;;;;4972856;28;20555;-87
2023/09/10 04:28:46;;;;;;;41.72;35.53;;;21.80;99.90;;;;;;4973289;28;20463;-87
2023/09/10 04:31:16;;;;;;;42.45;36.05;;;21.80;99.90;;;;;;4972491;28;20118;-87
2023/09/10 04:33:42;;;;;;;42.22;35.50;;;21.80;99.90;;;;;;4972910;28;20391;-87
2023/09/10 04:36:08;;;;;;;40.33;35.97;;;21.70;99.90;;;;;;4973328;28;20029;-87
2023/09/10 04:38:34;;;;;;;38.30;34.20;;;21.80;99.90;;;;;;4972211;28;20105;-87
2023/09/10 04:40:59;;;;;;;41.47;37.05;;;21.80;99.90;;;;;;4973354;28;20031;-87
2023/09/10 04:43:25;;;;;;;46.28;35.90;;;21.80;99.90;;;;;;4973494;28;20026;-87
2023/09/10 04:45:51;;;;;;;39.10;35.05;;;21.70;99.90;;;;;;4972324;28;20382;-87
2023/09/10 04:48:17;;;;;;;40.20;35.88;;;21.70;99.90;;;;;;4977255;28;20475;-87
2023/09/10 04:50:43;;;;;;;40.50;36.20;;;21.70;99.90;;;;;;4976662;28;20545;-87
2023/09/10 04:53:10;;;;;;;40.08;35.75;;;21.60;99.90;;;;;;4976170;28;20557;-87
2023/09/10 04:55:35;;;;;;;39.30;35.22;;;21.80;99.90;;;;;;4976807;28;20071;-87
2023/09/10 04:58:01;;;;;;;43.05;36.42;;;21.60;99.90;;;;;;4976933;28;20054;-87
2023/09/10 05:00:27;;;;;;;44.13;35.42;;;21.60;99.90;;;;;;4976410;28;20074;-87
2023/09/10 05:02:52;;;;;;;42.08;37.65;;;21.60;99.90;;;;;;4976922;28;20026;-86
2023/09/10 05:05:18;;;;;;;44.28;36.53;;;21.60;99.90;;;;;;4976824;28;20495;-86
2023/09/10 05:07:47;;;;;;;51.83;39.80;;;21.60;99.90;;;;;;4975727;28;20383;-86
2023/09/10 05:10:12;;;;;;;42.45;37.47;;;21.70;99.90;;;;;;4976576;28;20117;-87
2023/09/10 05:12:38;;;;;;;42.90;38.25;;;21.50;99.90;;;;;;4976345;28;20134;-87
2023/09/10 05:15:04;;;;;;;45.97;38.08;;;21.50;99.90;;;;;;4978331;28;20113;-87
2023/09/10 05:17:29;;;;;;;41.08;36.72;;;21.50;99.90;;;;;;4976442;28;20053;-87
2023/09/10 05:19:55;;;;;;;41.85;37.40;;;21.50;99.90;;;;;;4976263;28;20630;-87
2023/09/10 05:22:20;;;;;;;41.08;36.88;;;21.50;99.90;;;;;;4991267;28;20046;-87
2023/09/10 05:24:46;;;;;;;41.35;36.83;;;21.50;99.90;;;;;;4990538;28;20038;-87
2023/09/10 05:27:12;;;;;;;41.88;37.42;;;21.50;99.90;;;;;;4979113;28;20438;-87
2023/09/10 05:29:37;;;;;;;40.97;36.55;;;21.50;99.90;;;;;;4975246;28;20022;-87
2023/09/10 05:32:03;;;;;;;42.95;38.00;;;21.40;99.90;;;;;;4976357;28;20046;-88
2023/09/10 05:34:28;;;;;;;42.17;37.20;;;21.40;99.90;;;;;;4975563;28;20356;-87
2023/09/10 05:36:54;;;;;;;41.55;37.05;;;21.40;99.90;;;;;;4976014;28;20026;-87
2023/09/10 05:39:20;;;;;;;43.15;37.08;;;21.50;99.90;;;;;;4976369;28;20353;-87
2023/09/10 05:41:45;;;;;;;41.38;37.03;;;21.40;99.90;;;;;;4975158;28;20031;-86
2023/09/10 05:44:11;;;;;;;45.25;38.35;;;21.50;99.90;;;;;;4976147;28;20041;-87
2023/09/10 05:46:36;;;;;;;41.92;37.35;;;21.50;99.90;;;;;;4975820;28;20420;-86
2023/09/10 05:49:02;;;;;;;43.45;37.75;;;21.40;99.90;;;;;;4975370;28;20027;-87
2023/09/10 05:51:27;;;;;;;43.50;38.78;;;21.50;99.90;;;;;;4975881;28;20042;-88
2023/09/10 05:53:53;;;;;;;42.47;38.03;;;21.50;99.90;;;;;;4975556;28;20034;-86
2023/09/10 05:56:19;;;;;;;43.63;39.22;;;21.40;99.90;;;;;;4975521;28;20027;-87
2023/09/10 05:58:45;;;;;;;43.42;38.75;;;21.40;99.90;;;;;;4975585;28;20089;-87
2023/09/10 06:01:10;;;;;;;45.00;38.38;;;21.40;99.90;;;;;;4975669;28;20046;-87
2023/09/10 06:03:36;;;;;;;49.83;41.13;;;21.60;99.90;;;;;;4974804;28;20150;-87
2023/09/10 06:06:02;;;;;;;44.00;39.20;;;21.30;99.90;;;;;;4975637;28;20026;-88
2023/09/10 06:08:31;;;;;;;43.13;38.15;;;21.30;99.90;;;;;;4977341;28;20054;-87
2023/09/10 06:10:56;;;;;;;43.42;38.85;;;21.30;99.90;;;;;;4976849;28;20067;-87
2023/09/10 06:13:22;;;;;;;44.78;39.88;;;21.40;99.90;;;;;;4975518;28;20572;-86
2023/09/10 06:15:48;;;;;;;44.28;39.40;;;21.40;99.90;;;;;;4975169;28;20109;-87
2023/09/10 06:18:13;;;;;;;43.33;38.72;;;21.30;99.90;;;;;;4974976;28;20121;-87
2023/09/10 06:20:39;;;;;;;44.20;39.45;;;21.30;99.90;;;;;;4975027;28;20030;-87
2023/09/10 06:23:05;;;;;;;49.83;40.30;;;21.40;99.90;;;;;;4975378;28;20031;-87
2023/09/10 06:25:31;;;;;;;43.67;38.92;;;21.30;99.90;;;;;;4978505;28;20035;-87
2023/09/10 06:27:57;;;;;;;49.28;39.70;;;21.40;99.90;;;;;;4986612;28;20077;-87
2023/09/10 06:30:22;;;;;;;45.45;39.72;;;21.50;99.90;;;;;;4975351;28;20471;-87
2023/09/10 06:32:51;;;;;;;47.60;40.00;;;21.50;99.90;;;;;;4974182;28;20525;-87
2023/09/10 06:35:17;;;;;;;51.53;41.33;;;21.60;99.90;;;;;;4975060;28;20027;-87
2023/09/10 06:37:42;;;;;;;47.17;41.38;;;21.60;99.90;;;;;;4974669;28;20035;-87
2023/09/10 06:40:09;;;;;;;44.08;39.28;;;21.60;99.90;;;;;;4975011;28;20459;-88
2023/09/10 06:42:35;;;;;;;47.97;42.22;;;21.60;99.90;;;;;;4974812;28;20474;-87
2023/09/10 06:45:00;;;;;;;50.50;42.58;;;21.60;99.90;;;;;;4974408;28;20031;-87
2023/09/10 06:47:27;;;;;;;47.22;40.63;;;21.70;99.90;;;;;;4974879;28;20050;-88
2023/09/10 06:49:53;;;;;;;53.85;42.40;;;21.70;99.90;;;;;;4974455;28;20030;-88
2023/09/10 06:52:18;;;;;;;47.10;41.78;;;21.90;99.90;;;;;;4974368;28;20042;-88
2023/09/10 06:54:44;;;;;;;45.70;40.83;;;21.70;99.90;;;;;;4974616;28;20023;-88
2023/09/10 06:57:10;;;;;;;47.38;42.15;;;21.80;99.90;;;;;;4974810;28;20035;-88
2023/09/10 06:59:35;;;;;;;50.05;41.83;;;21.80;99.90;;;;;;4973684;28;20049;-87
2023/09/10 07:02:01;;;;;;;51.10;42.08;;;21.70;99.90;;;;;;4974546;28;20054;-87
2023/09/10 07:04:27;;;;;;;51.92;42.25;;;21.80;99.90;;;;;;4980862;28;20046;-88
2023/09/10 07:06:53;;;;;;;49.35;42.55;;;22.50;99.90;;;;;;4974401;28;20113;-87
2023/09/10 07:09:23;;;;;;;53.08;44.42;;;22.00;99.90;;;;;;4974137;28;20027;-86
2023/09/10 07:11:52;;;;;;;51.03;42.53;;;21.90;99.90;;;;;;4974771;28;20280;-87
2023/09/10 07:14:19;;;;;;;54.85;43.13;;;21.90;99.90;;;;;;4974137;28;20031;-88
2023/09/10 07:16:46;;;;;;;49.60;43.70;;;21.90;99.90;;;;;;4974106;28;20027;-88
2023/09/10 07:19:12;;;;;;;50.35;42.60;;;21.90;99.90;;;;;;4974384;28;20537;-86
2023/09/10 07:21:57;;;;;;;48.60;43.38;;;22.00;99.90;;;;;;4973437;28;20019;-88
2023/09/10 07:24:23;;;;;;;53.38;43.72;;;22.00;99.90;;;;;;4974591;28;20044;-87
2023/09/10 07:26:49;;;;;;;53.13;43.20;;;22.00;99.90;;;;;;4973997;28;20026;-87
2023/09/10 07:29:16;;;;;;;50.78;43.28;;;22.10;99.90;;;;;;4979981;28;20042;-86
2023/09/10 07:31:42;;;;;;;50.63;44.17;;;23.10;99.90;;;;;;4984525;28;20415;-87
2023/09/10 07:34:10;;;;;;;52.10;44.88;;;22.10;99.90;;;;;;4973966;28;20030;-87
2023/09/10 07:36:38;;;;;;;54.30;44.40;;;22.10;99.90;;;;;;4973778;28;20027;-87
2023/09/10 07:39:03;;;;;;;48.13;42.20;;;22.10;99.90;;;;;;4974161;28;20041;-87
2023/09/10 07:41:29;;;;;;;50.97;42.25;;;22.20;99.90;;;;;;4972742;28;20027;-86
2023/09/10 07:43:55;;;;;;;53.38;42.25;;;22.20;99.90;;;;;;4973534;28;20022;-88
2023/09/10 07:46:30;;;;;;;48.88;41.03;;;22.30;99.90;;;;;;4965408;28;20031;-87
2023/09/10 07:48:56;;;;;;;55.78;44.58;;;22.30;99.90;;;;;;4973180;28;20069;-87
2023/09/10 07:51:21;;;;;;;54.30;43.10;;;23.00;99.90;;;;;;4973901;28;20436;-88
2023/09/10 07:54:08;;;;;;;48.80;41.22;;;22.40;99.90;;;;;;4973341;28;20023;-87
2023/09/10 07:56:33;;;;;;;49.58;43.03;;;22.40;99.90;;;;;;4972827;28;20031;-88
2023/09/10 07:59:11;;;;;;;54.80;42.42;;;22.50;99.90;;;;;;4978598;28;20166;-88
2023/09/10 08:01:38;;;;;;;48.63;41.05;;;22.50;99.90;;;;;;4971071;28;20525;-87
2023/09/10 08:04:03;;;;;;;49.53;42.20;;;22.60;99.90;;;;;;4973124;28;20083;-87
2023/09/10 08:06:29;;;;;;;46.08;40.72;;;22.60;99.90;;;;;;4973339;28;20500;-87
2023/09/10 08:08:55;;;;;;;44.85;39.50;;;22.60;99.90;;;;;;4973271;28;20031;-87
2023/09/10 08:11:20;;;;;;;57.60;42.53;;;23.70;99.90;;;;;;4972986;28;20039;-87
2023/09/10 08:13:52;;;;;;;49.33;41.40;;;22.70;99.90;;;;;;4973372;28;20022;-87
2023/09/10 08:16:17;;;;;;;48.67;40.05;;;22.80;99.90;;;;;;4972954;28;20031;-88
2023/09/10 08:18:45;;;;;;;49.45;41.72;;;22.80;99.90;;;;;;4973572;28;20034;-87
2023/09/10 08:21:29;;;;;;;43.35;37.95;;;22.90;99.90;;;;;;4972512;28;20383;-87
2023/09/10 08:23:54;;;;;;;50.05;40.17;;;22.90;99.90;;;;;;4972949;28;20035;-87
2023/09/10 08:26:20;;;;;;;50.40;40.88;;;23.30;99.90;;;;;;4973730;28;20530;-88
2023/09/10 08:29:01;;;;;;;58.00;42.63;;;23.00;99.90;;;;;;4973339;28;20034;-88
2023/09/10 08:31:26;;;;;;;46.90;37.40;;;24.00;99.90;;;;;;4974816;28;20550;-87
2023/09/10 08:34:10;;;;;;;52.58;41.40;;;23.10;99.90;;;;;;4978062;28;20039;-87
2023/09/10 08:36:36;;;;;;;44.55;37.88;;;23.60;99.90;;;;;;4976431;28;20030;-88
2023/09/10 08:39:02;;;;;;;44.60;38.05;;;23.20;99.90;;;;;;4972846;28;20483;-87
2023/09/10 08:42:15;;;;;;;52.58;39.65;;;23.30;99.90;;;;;;4973194;28;20364;-87
2023/09/10 08:44:43;;;;;;;45.08;36.45;;;23.40;99.90;;;;;;4972056;28;20086;-88
2023/09/10 08:47:28;;;;;;;44.13;37.60;;;23.40;99.90;;;;;;4973381;28;20027;-88
2023/09/10 08:49:59;;;;;;;43.05;36.20;;;23.50;99.90;;;;;;4972666;28;20443;-86
2023/09/10 08:52:45;;;;;;;48.40;38.80;;;23.60;99.90;;;;;;4975440;28;20039;-87
2023/09/10 08:55:26;;;;;;;48.95;37.30;;;24.50;99.90;;;;;;4977110;28;20031;-87
2023/09/10 08:57:56;;;;;;;45.20;34.58;;;23.60;99.90;;;;;;4974343;28;20026;-87
2023/09/10 09:00:43;;;;;;;46.17;37.35;;;24.10;99.90;;;;;;4972613;28;20061;-87
2023/09/10 09:03:09;;;;;;;39.67;35.38;;;23.90;99.90;;;;;;4972933;28;20030;-87
2023/09/10 09:05:36;;;;;;;47.33;36.13;;;23.80;99.90;;;;;;4972360;28;20023;-87
2023/09/10 09:08:29;;;;;;;49.45;35.55;;;23.80;99.90;;;;;;4972889;28;20027;-87
2023/09/10 09:10:54;;;;;;;50.15;37.45;;;23.90;99.90;;;;;;4972550;28;20029;-87
2023/09/10 09:13:37;;;;;;;43.60;37.03;;;23.90;99.90;;;;;;4972219;28;20034;-87
2023/09/10 09:16:04;;;;;;;40.25;34.85;;;24.40;99.90;;;;;;4973146;28;20034;-87
2023/09/10 09:18:48;;;;;;;40.65;34.65;;;24.10;99.90;;;;;;4972751;28;20030;-88
2023/09/10 09:21:41;;;;;;;40.70;35.35;;;24.80;99.90;;;;;;4974661;28;20031;-88
2023/09/10 09:24:09;;;;;;;47.38;36.58;;;24.20;99.90;;;;;;4973099;28;20394;-87
2023/09/10 09:26:54;;;;;;;40.70;35.20;;;24.20;99.90;;;;;;4971908;28;20499;-87
2023/09/10 09:29:20;;;;;;;42.50;35.30;;;24.30;99.90;;;;;;4972809;28;20031;-87
2023/09/10 09:31:45;;;;;;;40.97;33.17;;;24.40;99.90;;;;;;4972835;28;20043;-87
2023/09/10 09:34:26;;;;;;;45.65;34.72;;;24.40;99.90;;;;;;4975208;28;20034;-87
2023/09/10 09:36:52;;;;;;;42.40;34.60;;;24.50;99.90;;;;;;4976086;28;20058;-87
2023/09/10 09:39:18;;;;;;;43.08;33.08;;;24.50;99.90;;;;;;4985584;28;20030;-87
2023/09/10 09:42:05;;;;;;;38.85;31.52;;;24.60;99.90;;;;;;4985945;28;20030;-86
2023/09/10 09:44:30;;;;;;;35.42;30.65;;;24.70;99.90;;;;;;4976083;28;20030;-87
2023/09/10 09:47:12;;;;;;;32.28;28.95;;;24.70;99.90;;;;;;4975988;28;20023;-87
2023/09/10 09:49:45;;;;;;;39.28;30.98;;;24.80;99.90;;;;;;4977326;28;20093;-87
2023/09/10 09:52:32;;;;;;;33.10;27.60;;;24.90;99.90;;;;;;4975966;28;20085;-87
2023/09/10 09:54:58;;;;;;;40.53;26.02;;;24.90;99.90;;;;;;4975393;28;20073;-87
2023/09/10 09:57:23;;;;;;;41.53;25.50;;;25.00;99.90;;;;;;4976358;28;20483;-88
2023/09/10 09:59:49;;;;;;;30.48;23.85;;;25.10;99.90;;;;;;4975832;28;20475;-87
2023/09/10 10:02:17;;;;;;;39.33;26.33;;;25.10;99.90;;;;;;4924674;28;20065;-86
2023/09/10 10:04:44;;;;;;;27.77;24.17;;;25.20;99.90;;;;;;4975597;28;20023;-87
2023/09/10 10:07:12;;;;;;;36.13;25.17;;;25.20;99.90;;;;;;4975770;28;20034;-86
2023/09/10 10:09:39;;;;;;;29.55;23.35;;;25.20;99.90;;;;;;4974448;28;20027;-86
2023/09/10 10:12:06;;;;;;;34.30;25.40;;;25.30;99.90;;;;;;4975473;28;20057;-88
2023/09/10 10:14:33;;;;;;;28.48;22.23;;;25.40;99.90;;;;;;4975028;28;20019;-88
2023/09/10 10:17:03;;;;;;;31.58;24.13;;;25.50;99.90;;;;;;4974559;28;20026;-88
2023/09/10 10:19:30;;;;;;;;;;;25.50;99.90;;;;;;4975707;28;20498;-88
2023/09/10 10:21:57;;;;;;;28.02;22.35;;;25.60;99.90;;;;;;4975274;28;20428;-87
2023/09/10 10:24:26;;;;;;;27.27;21.48;;;25.60;99.90;;;;;;4974849;28;20062;-87
2023/09/10 10:26:52;;;;;;;28.13;20.13;;;25.50;99.90;;;;;;4975222;28;20027;-88
2023/09/10 10:29:28;;;;;;;31.90;21.15;;;25.90;99.90;;;;;;4976676;28;20031;-87
2023/09/10 10:32:07;;;;;;;23.80;18.40;;;26.40;99.90;;;;;;4974929;28;20043;-88
2023/09/10 10:34:39;;;;;;;27.88;19.02;;;25.80;99.90;;;;;;4975134;28;20033;-88
2023/09/10 10:37:15;;;;;;;31.33;19.27;;;25.80;99.90;;;;;;4975669;28;20026;-88
2023/09/10 10:40:10;;;;;;;23.48;19.40;;;25.90;99.90;;;;;;4975531;28;20054;-88
2023/09/10 10:43:09;;;;;;;20.75;17.98;;;26.00;99.90;;;;;;4975745;28;20042;-87
2023/09/10 10:45:35;;;;;;;24.15;17.13;;;26.00;99.90;;;;;;4979356;28;20019;-87
2023/09/10 10:48:06;;;;;;;22.48;16.70;;;26.00;99.90;;;;;;4975099;28;20023;-87
2023/09/10 10:50:35;;;;;;;23.27;16.38;;;26.10;99.90;;;;;;4975052;28;20023;-86
2023/09/10 10:53:20;;;;;;;17.55;14.68;;;26.10;99.90;;;;;;4974736;28;20035;-88
2023/09/10 10:55:50;;;;;;;21.27;14.13;;;26.10;99.90;;;;;;4974659;28;20027;-88
2023/09/10 10:58:17;;;;;;;16.15;13.30;;;26.50;99.90;;;;;;4974596;28;20045;-88
2023/09/10 11:00:47;;;;;;;22.27;12.35;;;26.40;99.90;;;;;;4974411;28;20039;-87
2023/09/10 11:03:15;;;;;;;14.68;10.38;;;26.30;99.90;;;;;;4974811;28;20058;-89
2023/09/10 11:06:04;;;;;;;10.90;9.52;;;26.30;99.90;;;;;;4973991;28;20031;-88
2023/09/10 11:08:41;;;;;;;16.73;12.43;;;26.50;99.90;;;;;;4975383;28;20157;-87
2023/09/10 11:11:09;;;;;;;16.27;11.55;;;26.50;99.90;;;;;;4975509;28;20029;-88
2023/09/10 11:14:00;;;;;;;17.00;11.40;;;26.40;99.90;;;;;;4973928;28;20407;-87
2023/09/10 11:16:34;;;;;;;12.68;10.35;;;26.50;99.90;;;;;;4974596;28;20081;-88
2023/09/10 11:19:01;;;;;;;12.35;9.60;;;26.50;99.90;;;;;;4974385;28;20413;-88
2023/09/10 11:21:54;;;;;;;15.68;9.38;;;26.60;99.90;;;;;;4974301;28;20502;-88
2023/09/10 11:24:19;;;;;;;11.98;9.00;;;26.60;99.90;;;;;;4975724;28;20029;-90
2023/09/10 11:26:45;;;;;;;14.63;9.43;;;26.70;99.90;;;;;;4974518;28;20022;-89
2023/09/10 11:29:17;;;;;;;10.90;9.02;;;26.80;99.90;;;;;;4974985;28;20371;-88
2023/09/10 11:31:45;;;;;;;11.85;9.15;;;26.80;99.90;;;;;;4973966;28;20549;-87
2023/09/10 11:34:23;;;;;;;14.63;8.10;;;26.80;99.90;;;;;;4974499;28;20058;-88
2023/09/10 11:37:03;;;;;;;9.20;7.53;;;26.80;99.90;;;;;;4981270;28;20037;-88
2023/09/10 11:39:33;;;;;;;13.20;8.20;;;26.90;99.90;;;;;;4985076;28;20471;-87
2023/09/10 11:42:00;;;;;;;12.80;7.95;;;26.90;99.90;;;;;;4976462;28;20094;-88
2023/09/10 11:44:26;;;;;;;9.90;6.68;;;27.00;99.90;;;;;;4978246;28;20054;-87
2023/09/10 11:46:52;;;;;;;10.13;8.18;;;27.20;99.90;;;;;;4988071;28;20022;-87
2023/09/10 11:49:19;;;;;;;13.52;7.43;;;27.00;99.90;;;;;;4978113;28;20034;-88
2023/09/10 11:51:47;;;;;;;14.02;7.55;;;27.10;99.90;;;;;;4977555;28;20376;-87
2023/09/10 11:54:16;;;;;;;12.38;6.80;;;27.10;99.90;;;;;;4976897;28;20042;-88
2023/09/10 11:56:47;;;;;;;12.68;7.82;;;27.10;99.90;;;;;;4973808;28;20049;-88
2023/09/10 11:59:16;;;;;;;11.43;7.20;;;27.20;99.90;;;;;;4975289;28;20035;-88
2023/09/10 12:01:42;;;;;;;13.98;7.30;;;27.20;99.90;;;;;;4973813;28;20126;-87
2023/09/10 12:04:08;;;;;;;12.40;7.78;;;27.20;99.90;;;;;;4974870;28;20602;-87
2023/09/10 12:06:33;;;;;;;18.23;7.03;;;27.30;99.90;;;;;;4973981;28;20035;-87
2023/09/10 12:08:59;;;;;;;10.32;6.60;;;27.40;99.90;;;;;;4973887;28;20378;-88
2023/09/10 12:11:26;;;;;;;18.08;7.35;;;27.40;99.90;;;;;;4974509;28;20419;-87
2023/09/10 12:13:53;;;;;;;8.48;7.45;;;27.70;99.90;;;;;;4973470;28;20427;-87
2023/09/10 12:16:19;;;;;;;16.27;7.05;;;27.50;99.90;;;;;;4972975;28;20498;-87
2023/09/10 12:18:45;;;;;;;10.32;7.60;;;27.60;99.90;;;;;;4973395;28;20035;-88
2023/09/10 12:21:14;;;;;;;9.57;7.38;;;27.60;99.90;;;;;;4973960;28;20031;-88
2023/09/10 12:23:43;;;;;;;10.65;7.10;;;27.60;99.90;;;;;;4973010;28;20550;-87
2023/09/10 12:26:10;;;;;;;12.52;7.97;;;27.60;99.90;;;;;;4973523;28;20031;-88
2023/09/10 12:28:36;;;;;;;10.30;6.38;;;27.70;99.90;;;;;;4973412;28;20027;-88
2023/09/10 12:31:02;;;;;;;9.63;6.60;;;27.80;99.90;;;;;;4973452;28;20038;-88
2023/09/10 12:33:28;;;;;;;10.60;7.60;;;27.90;99.90;;;;;;4979881;28;20089;-88
2023/09/10 12:35:55;;;;;;;14.65;7.80;;;27.70;99.90;;;;;;4976255;28;20030;-88